Avioradar koristi kolačiće da bi Vam omogućio jednostavnije i ugodnije korištenje stranice. 

AVIORADAR - Hrvatski zrakoplovni portal

METAR & TAF

[Source: ADDS]
METAR
LDZA 291600Z 00000KT 9999 FEW040 12/10 Q1018 NOSIG =
LDZA 291125Z 2912/3012 VRB02KT 9999 SCT045 TX15/2914Z TN07/3005Z TEMPO 2921/3009 3000 BR LDSP 291600Z 29007KT CAVOK 16/09 Q1018 NOSIG =
LDSP 291125Z 2912/3012 31009KT 9999 FEW030 TX19/3011Z TN12/3004Z BECMG 3010/3012 23006KT LDDU 291600Z VRB01KT CAVOK 17/11 Q1017 NOSIG =
LDDU 291125Z 2912/3012 28009KT 9999 FEW027 TX20/2912Z TN15/3000Z BECMG 2917/2919 02008KT BECMG 2922/3000 02020KT TEMPO 3000/3008 02020G30KT PROB40 TEMPO 3000/3009 VRB18G30KT BECMG 3010/3012 29008KT LDPL 291600Z 30004KT CAVOK 14/11 Q1018 NOSIG =
AMD LDPL 291214Z 2912/3012 27008KT 9999 FEW020 TX18/3011Z TN09/3005Z TEMPO 2912/2916 27012KT BECMG 2917/2919 34005KT PROB40 TEMPO 2919/3006 4000 BR PROB30 TEMPO 3000/3006 1200 BCFG LDZD 291600Z 01004KT 9999 FEW070 13/10 Q1018 NOSIG =
LDZD 291125Z 2912/3012 30010KT 9999 FEW027 TX18/3011Z TN08/3006Z BECMG 2916/2918 VRB02KT PROB40 TEMPO 2921/3006 3000 BCFG PROB30 TEMPO 2922/3005 0800 FG BECMG 3010/3012 30007KT LDRI 291600Z 01003KT CAVOK 15/11 Q1018 =
LDRI 291125Z 2912/3012 03006KT 9999 FEW030 TX19/2914Z TN10/3005Z PROB30 TEMPO 2912/2915 30006KT LDOS 291600Z 01007KT 1000 BR BKN002 OVC005 12/11 Q1018 =
AMD LDOS 291554Z 2915/3012 VRB02KT 1500 BR BKN003 TX13/3011Z TN07/3005Z PROB40 TEMPO 2919/3003 0200 FG VV001 BECMG 3003/3005 28008KT CAVOK
TAF
LDZA 291125Z 2912/3012 VRB02KT 9999 SCT045 TX15/2914Z TN07/3005Z TEMPO 2921/3009 3000 BR =
LDSP 291125Z 2912/3012 31009KT 9999 FEW030 TX19/3011Z TN12/3004Z BECMG 3010/3012 23006KT =
LDDU 291125Z 2912/3012 28009KT 9999 FEW027 TX20/2912Z TN15/3000Z BECMG 2917/2919 02008KT BECMG 2922/3000 02020KT TEMPO 3000/3008 02020G30KT PROB40 TEMPO 3000/3009 VRB18G30KT BECMG 3010/3012 29008KT =
AMD LDPL 291214Z 2912/3012 27008KT 9999 FEW020 TX18/3011Z TN09/3005Z TEMPO 2912/2916 27012KT BECMG 2917/2919 34005KT PROB40 TEMPO 2919/3006 4000 BR PROB30 TEMPO 3000/3006 1200 BCFG =
LDZD 291125Z 2912/3012 30010KT 9999 FEW027 TX18/3011Z TN08/3006Z BECMG 2916/2918 VRB02KT PROB40 TEMPO 2921/3006 3000 BCFG PROB30 TEMPO 2922/3005 0800 FG BECMG 3010/3012 30007KT =
LDRI 291125Z 2912/3012 03006KT 9999 FEW030 TX19/2914Z TN10/3005Z PROB30 TEMPO 2912/2915 30006KT =
AMD LDOS 291554Z 2915/3012 VRB02KT 1500 BR BKN003 TX13/3011Z TN07/3005Z PROB40 TEMPO 2919/3003 0200 FG VV001 BECMG 3003/3005 28008KT CAVOK =
SR / SS: 05:32 / 15:46 UTC (Zagreb 2020-10-29)